Time;durP1;ratioP1;P1;durP2;ratioP2;P2;SDS_P1;SDS_P2;PMS_P1;PMS_P2;Temp;Humidity;BMP_temperature;BMP_pressure;BME280_temperature;BME280_humidity;BME280_pressure;Samples;Min_cycle;Max_cycle;Signal;HPM_P1;HPM_P2
2021/12/21 00:08:54;;;;;;;1.43;0.70;;;;;;;;;;20993606;28;20201;-68
2021/12/21 00:29:02;;;;;;;0.67;0.47;;;;;;;;;;20992017;28;20247;-68
2021/12/21 00:39:07;;;;;;;2.20;1.07;;;;;;;;;;20994409;28;20213;-69
2021/12/21 00:49:16;;;;;;;0.57;0.57;;;;;;;;;;21064526;28;20230;-68
2021/12/21 00:59:18;;;;;;;0.50;0.50;;;1.20;99.90;;;;;;21072248;28;20232;-69
2021/12/21 01:19:32;;;;;;;1.70;0.50;;;;;;;;;;21071212;28;20262;-68
2021/12/21 01:29:54;;;;;;;1.83;0.57;;;;;;;;;;21072252;28;20204;-68
2021/12/21 01:40:04;;;;;;;0.67;0.53;;;;;;;;;;21070651;28;20273;-68
2021/12/21 01:50:06;;;;;;;1.13;0.80;;;;;;;;;;21069967;28;20246;-68
2021/12/21 02:00:09;;;;;;;1.60;1.07;;;;;;;;;;21070281;28;20623;-69
2021/12/21 02:10:10;;;;;;;0.80;0.57;;;;;;;;;;21070638;28;20280;-69
2021/12/21 02:20:41;;;;;;;0.87;0.83;;;;;;;;;;21107187;22;20223;-65
2021/12/21 02:30:46;;;;;;;0.43;0.37;;;;;;;;;;21114896;28;20241;-66
2021/12/21 02:40:48;;;;;;;0.50;0.50;;;;;;;;;;21135891;28;20759;-66
2021/12/21 02:50:50;;;;;;;0.57;0.57;;;;;;;;;;21098746;28;20558;-66
2021/12/21 03:00:53;;;;;;;0.60;0.60;;;;;;;;;;21115307;28;20766;-66
2021/12/21 03:11:08;;;;;;;0.70;0.70;;;;;;;;;;21145456;27;20230;-66
2021/12/21 03:21:10;;;;;;;0.57;0.50;;;0.90;99.90;;;;;;21216866;27;20240;-65
2021/12/21 03:31:12;;;;;;;0.40;0.40;;;;;;;;;;21184084;27;20207;-66
2021/12/21 03:41:16;;;;;;;0.90;0.70;;;;;;;;;;21199897;27;20240;-65
2021/12/21 03:51:19;;;;;;;0.77;0.67;;;0.40;99.90;;;;;;21215568;27;20215;-66
2021/12/21 04:01:21;;;;;;;0.83;0.53;;;;;;;;;;21182137;27;20706;-66
2021/12/21 04:11:23;;;;;;;2.33;0.50;;;;;;;;;;21129195;28;20566;-66
2021/12/21 04:21:25;;;;;;;1.43;0.63;;;0.20;99.90;;;;;;21128160;28;20273;-66
2021/12/21 04:31:27;;;;;;;1.33;0.40;;;;;;;;;;21111015;28;20215;-66
2021/12/21 04:41:29;;;;;;;3.63;1.00;;;;;;;;;;21109546;28;20269;-66
2021/12/21 04:51:31;;;;;;;0.87;0.63;;;;;;;;;;21109500;28;20215;-65
2021/12/21 05:01:33;;;;;;;0.43;0.43;;;0.10;99.90;;;;;;21125115;28;20236;-65
2021/12/21 05:11:36;;;;;;;0.57;0.57;;;;;;;;;;21091694;28;20207;-65
2021/12/21 05:21:37;;;;;;;1.77;1.00;;;;;;;;;;21123608;28;20233;-64
2021/12/21 05:31:39;;;;;;;0.67;0.63;;;;;;;;;;21123826;28;20200;-65
2021/12/21 05:51:49;;;;;;;0.40;0.40;;;;;;;;;;21121739;28;20701;-65
2021/12/21 06:01:51;;;;;;;0.63;0.63;;;;;;;;;;21116412;28;20280;-64
2021/12/21 06:12:13;;;;;;;0.90;0.80;;;;;;;;;;21122279;28;20265;-64
2021/12/21 06:32:35;;;;;;;1.50;1.00;;;;;;;;;;21131031;28;20288;-64
2021/12/21 06:42:39;;;;;;;4.07;2.17;;;;;;;;;;21103123;28;20216;-65
2021/12/21 06:52:41;;;;;;;0.70;0.50;;;-0.40;99.90;;;;;;21135847;28;20749;-64
2021/12/21 07:02:43;;;;;;;1.90;1.00;;;;;;;;;;21105523;28;20228;-65
2021/12/21 07:22:47;;;;;;;2.07;1.00;;;;;;;;;;21116532;28;20284;-64
2021/12/21 07:32:49;;;;;;;0.40;0.40;;;-0.60;99.90;;;;;;21132682;28;20220;-65
2021/12/21 07:42:51;;;;;;;0.83;0.70;;;;;;;;;;21130330;28;20277;-64
2021/12/21 07:52:55;;;;;;;0.70;0.70;;;;;;;;;;21172449;27;20249;-65
2021/12/21 08:02:57;;;;;;;0.73;0.57;;;;;;;;;;21160181;27;20215;-65
2021/12/21 08:13:00;;;;;;;1.40;0.63;;;;;;;;;;21112249;28;20215;-64
2021/12/21 08:23:03;;;;;;;1.00;0.57;;;;;;;;;;21165178;22;20605;-70
2021/12/21 08:33:05;;;;;;;2.27;1.60;;;;;;;;;;21153979;28;20717;-70
2021/12/21 08:43:09;;;;;;;0.40;0.40;;;;;;;;;;21120881;28;20756;-70
2021/12/21 08:53:12;;;;;;;0.70;0.63;;;;;;;;;;21076142;28;20244;-70
2021/12/21 09:03:14;;;;;;;1.33;0.70;;;-0.10;99.90;;;;;;21137362;28;20220;-70
2021/12/21 09:13:16;;;;;;;0.90;0.50;;;;;;;;;;21134343;28;20217;-70
2021/12/21 09:23:18;;;;;;;3.33;1.10;;;;;;;;;;21154431;28;20237;-70
2021/12/21 09:33:20;;;;;;;0.70;0.70;;;;;;;;;;21157138;28;20553;-70
2021/12/21 09:43:22;;;;;;;0.33;0.33;;;;;;;;;;21178828;27;20260;-70
2021/12/21 09:53:26;;;;;;;1.73;0.90;;;0.60;99.90;;;;;;21239080;27;20199;-70
2021/12/21 10:03:28;;;;;;;0.80;0.80;;;;;;;;;;21239111;27;20235;-70
2021/12/21 10:13:30;;;;;;;8.90;1.50;;;0.80;99.90;;;;;;21209429;28;20657;-69
2021/12/21 10:23:38;;;;;;;1.57;0.97;;;1.10;99.90;;;;;;21218649;27;20227;-70
2021/12/21 10:33:44;;;;;;;0.93;0.83;;;;;;;;;;21153395;28;20215;-70
2021/12/21 10:43:58;;;;;;;0.60;0.60;;;1.80;99.90;;;;;;21167069;28;20212;-70
2021/12/21 10:53:59;;;;;;;1.30;1.10;;;;;;;;;;21163164;28;20251;-70
2021/12/21 11:04:02;;;;;;;3.00;1.03;;;;;;;;;;21164078;28;20208;-70
2021/12/21 11:14:14;;;;;;;1.40;0.90;;;;;;;;;;21163027;28;20217;-70
2021/12/21 11:24:18;;;;;;;2.43;1.77;;;2.20;99.90;;;;;;21137249;28;20216;-70
2021/12/21 11:34:23;;;;;;;1.70;1.10;;;;;;;;;;21163623;28;20292;-70
2021/12/21 11:44:44;;;;;;;1.53;1.40;;;;;;;;;;21160329;27;20286;-70
2021/12/21 11:54:52;;;;;;;1.37;1.17;;;2.70;99.90;;;;;;21130111;27;20553;-70
2021/12/21 12:04:58;;;;;;;17.73;1.40;;;;;;;;;;21132700;28;20742;-70
2021/12/21 12:15:01;;;;;;;1.73;0.70;;;;;;;;;;21160127;28;20253;-70
2021/12/21 12:25:05;;;;;;;1.63;1.20;;;;;;;;;;21146763;28;20236;-70
2021/12/21 12:35:07;;;;;;;1.00;0.90;;;;;;;;;;21142508;28;20219;-70
2021/12/21 12:45:11;;;;;;;1.10;0.87;;;;;;;;;;21143116;28;20630;-70
2021/12/21 12:55:15;;;;;;;1.20;0.77;;;;;;;;;;21082572;28;20201;-69
2021/12/21 13:05:17;;;;;;;1.13;0.90;;;;;;;;;;21072107;28;20574;-69
2021/12/21 13:15:19;;;;;;;1.57;0.97;;;;;;;;;;21079561;27;20261;-69
2021/12/21 13:25:20;;;;;;;0.77;0.63;;;;;;;;;;21149226;27;20570;-69
2021/12/21 13:35:26;;;;;;;6.30;0.80;;;;;;;;;;21182528;27;20227;-69
2021/12/21 13:45:28;;;;;;;0.43;0.43;;;;;;;;;;21161845;27;20219;-69
2021/12/21 13:55:33;;;;;;;1.80;1.13;;;1.70;99.90;;;;;;21145751;28;20687;-70
2021/12/21 14:05:48;;;;;;;1.93;1.20;;;;;;;;;;21148290;28;20237;-69
2021/12/21 14:15:50;;;;;;;0.50;0.50;;;;;;;;;;21163069;28;20219;-69
2021/12/21 14:25:52;;;;;;;1.30;1.10;;;;;;;;;;21186552;27;20759;-69
2021/12/21 14:35:58;;;;;;;1.00;0.87;;;;;;;;;;21163658;28;20234;-69
2021/12/21 14:46:01;;;;;;;0.60;0.60;;;;;;;;;;21164708;28;20702;-69
2021/12/21 14:56:02;;;;;;;0.80;0.80;;;1.10;99.90;;;;;;21210076;27;20232;-69
2021/12/21 15:06:05;;;;;;;0.77;0.63;;;;;;;;;;21162416;27;20208;-70
2021/12/21 15:16:07;;;;;;;1.50;0.83;;;;;;;;;;21081179;28;20204;-69
2021/12/21 15:26:09;;;;;;;0.80;0.67;;;;;;;;;;21079648;28;20224;-69
2021/12/21 15:36:11;;;;;;;1.33;0.87;;;0.70;99.90;;;;;;21077932;28;20285;-70
2021/12/21 15:46:13;;;;;;;0.90;0.70;;;;;;;;;;21139277;27;20677;-70
2021/12/21 15:56:16;;;;;;;0.90;0.53;;;0.90;99.90;;;;;;21238302;27;20292;-70
2021/12/21 16:06:18;;;;;;;1.63;1.00;;;;;;;;;;21245620;27;20223;-70
2021/12/21 16:16:20;;;;;;;0.70;0.57;;;;;;;;;;21227644;27;20678;-70
2021/12/21 16:26:21;;;;;;;2.03;1.30;;;0.70;99.90;;;;;;21244657;27;20640;-70
2021/12/21 16:36:24;;;;;;;1.27;0.97;;;;;;;;;;21243843;27;20240;-69
2021/12/21 16:46:25;;;;;;;1.73;1.20;;;;;;;;;;21228472;27;20211;-69
2021/12/21 16:56:28;;;;;;;1.67;1.20;;;;;;;;;;21151906;27;20608;-70
2021/12/21 17:06:30;;;;;;;3.03;1.27;;;;;;;;;;21160919;27;20235;-69
2021/12/21 17:16:32;;;;;;;5.40;1.10;;;;;;;;;;21241719;27;20195;-69
2021/12/21 17:26:35;;;;;;;1.43;1.33;;;;;;;;;;21221568;27;20231;-69
2021/12/21 17:36:37;;;;;;;1.23;0.90;;;;;;;;;;21238776;27;20774;-69
2021/12/21 17:46:39;;;;;;;1.03;0.97;;;;;;;;;;21239194;27;20235;-70
2021/12/21 17:56:41;;;;;;;1.07;0.97;;;;;;;;;;21238332;27;20219;-69
2021/12/21 18:06:44;;;;;;;2.03;1.33;;;;;;;;;;21238417;27;20764;-69
2021/12/21 18:16:46;;;;;;;1.77;1.10;;;;;;;;;;21237251;27;20211;-69
2021/12/21 18:26:48;;;;;;;1.90;1.33;;;;;;;;;;21177484;27;20703;-70
2021/12/21 18:36:50;;;;;;;0.90;0.80;;;;;;;;;;21113796;28;20254;-69
2021/12/21 18:46:52;;;;;;;2.27;1.40;;;0.00;99.90;;;;;;21064025;28;20241;-70
2021/12/21 18:56:54;;;;;;;2.80;2.37;;;;;;;;;;21042012;28;20196;-70
2021/12/21 19:06:56;;;;;;;1.70;1.13;;;;;;;;;;21157031;28;20239;-71
2021/12/21 19:16:58;;;;;;;1.80;1.20;;;;;;;;;;21160295;27;20257;-70
2021/12/21 19:27:00;;;;;;;1.43;0.93;;;;;;;;;;21182425;27;20235;-70
2021/12/21 19:37:04;;;;;;;0.97;0.70;;;-0.30;99.90;;;;;;21200218;27;20203;-70
2021/12/21 19:47:05;;;;;;;4.17;1.33;;;;;;;;;;21244945;27;20232;-69
2021/12/21 19:57:09;;;;;;;1.37;1.03;;;-0.20;99.90;;;;;;21243695;27;20215;-69
2021/12/21 20:07:11;;;;;;;1.80;1.57;;;;;;;;;;21224849;27;20222;-70
2021/12/21 20:17:13;;;;;;;0.80;0.80;;;;;;;;;;21224787;27;20207;-70
2021/12/21 20:27:16;;;;;;;1.03;0.80;;;-0.10;99.90;;;;;;21192851;27;20219;-69
2021/12/21 20:37:20;;;;;;;0.60;0.60;;;;;;;;;;21073141;28;20208;-69
2021/12/21 20:47:22;;;;;;;0.80;0.80;;;;;;;;;;21059497;28;20580;-69
2021/12/21 20:57:24;;;;;;;1.67;0.83;;;;;;;;;;21029487;28;20791;-69
2021/12/21 21:07:26;;;;;;;1.33;0.67;;;;;;;;;;21022391;28;20220;-69
2021/12/21 21:17:27;;;;;;;0.97;0.80;;;;;;;;;;21060431;28;20691;-69
2021/12/21 21:27:29;;;;;;;1.60;1.30;;;;;;;;;;21044808;28;20307;-70
2021/12/21 21:37:31;;;;;;;0.60;0.57;;;;;;;;;;21060181;28;20208;-69
2021/12/21 21:47:33;;;;;;;0.87;0.70;;;;;;;;;;21088157;28;20223;-69
2021/12/21 21:57:36;;;;;;;1.27;1.10;;;;;;;;;;21213293;27;20231;-70
2021/12/21 22:07:37;;;;;;;1.40;1.13;;;;;;;;;;21232633;27;20210;-70
2021/12/21 22:17:39;;;;;;;1.57;1.23;;;;;;;;;;21184569;27;20229;-69
2021/12/21 22:27:42;;;;;;;1.60;1.20;;;;;;;;;;21147400;28;20235;-69
2021/12/21 22:37:45;;;;;;;1.03;0.93;;;;;;;;;;21152713;28;20249;-69
2021/12/21 22:47:47;;;;;;;2.13;1.27;;;;;;;;;;21150684;28;20216;-69
2021/12/21 22:57:48;;;;;;;1.50;0.87;;;;;;;;;;21168463;28;20196;-69
2021/12/21 23:07:50;;;;;;;0.73;0.73;;;;;;;;;;21168676;28;20216;-69
2021/12/21 23:17:52;;;;;;;1.13;0.87;;;;;;;;;;21167250;28;20743;-69
2021/12/21 23:27:53;;;;;;;3.57;1.40;;;;;;;;;;21166020;28;20261;-69
2021/12/21 23:37:56;;;;;;;2.10;1.40;;;;;;;;;;21162834;28;20216;-69
2021/12/21 23:47:58;;;;;;;5.60;1.43;;;;;;;;;;21163178;28;20592;-69
2021/12/21 23:58:00;;;;;;;3.30;2.17;;;;;;;;;;21164389;28;20225;-69
